createdAt,value
2018-04-23T00:02:21.250Z,7.77
2018-04-23T00:04:49.462Z,7.73
2018-04-23T00:07:17.837Z,8.07
2018-04-23T00:09:45.344Z,7.70
2018-04-23T00:12:12.858Z,7.30
2018-04-23T00:14:40.365Z,7.77
2018-04-23T00:17:07.877Z,7.50
2018-04-23T00:19:35.396Z,7.80
2018-04-23T00:22:02.967Z,7.33
2018-04-23T00:24:30.467Z,8.27
2018-04-23T00:26:57.995Z,8.70
2018-04-23T00:29:25.497Z,7.53
2018-04-23T00:31:53.785Z,11.77
2018-04-23T00:34:21.322Z,11.80
2018-04-23T00:36:48.853Z,11.63
2018-04-23T00:39:16.390Z,12.07
2018-04-23T00:41:44.199Z,12.67
2018-04-23T00:44:11.931Z,14.27
2018-04-23T00:46:39.450Z,13.30
2018-04-23T00:49:06.967Z,12.60
2018-04-23T00:51:34.489Z,12.47
2018-04-23T00:54:02.074Z,11.33
2018-04-23T00:56:30.119Z,11.10
2018-04-23T00:58:57.864Z,11.80
2018-04-23T01:01:25.380Z,9.90
2018-04-23T01:03:52.898Z,10.63
2018-04-23T01:06:20.421Z,9.83
2018-04-23T01:08:48.965Z,10.37
2018-04-23T01:11:16.497Z,11.37
2018-04-23T01:13:44.155Z,10.40
2018-04-23T01:16:11.670Z,9.20
2018-04-23T01:18:39.182Z,9.80
2018-04-23T01:21:06.854Z,9.17
2018-04-23T01:23:34.365Z,8.10
2018-04-23T01:26:01.954Z,7.60
2018-04-23T01:28:29.451Z,7.23
2018-04-23T01:30:56.988Z,6.97
2018-04-23T01:33:24.499Z,6.93
2018-04-23T01:35:52.017Z,7.40
2018-04-23T01:40:53.365Z,7.37
2018-04-23T01:43:20.904Z,6.80
2018-04-23T01:45:48.494Z,6.73
2018-04-23T01:48:16.025Z,6.53
2018-04-23T01:50:43.686Z,7.40
2018-04-23T01:53:11.480Z,6.53
2018-04-23T01:55:38.986Z,8.10
2018-04-23T01:58:06.518Z,7.33
2018-04-23T02:00:34.026Z,6.87
2018-04-23T02:03:01.585Z,7.17
2018-04-23T02:05:29.096Z,7.50
2018-04-23T02:07:56.826Z,7.20
2018-04-23T02:10:24.329Z,7.17
2018-04-23T02:12:51.854Z,7.80
2018-04-23T02:15:19.502Z,7.07
2018-04-23T02:17:47.276Z,7.20
2018-04-23T02:20:15.030Z,7.83
2018-04-23T02:22:42.558Z,7.90
2018-04-23T02:25:10.232Z,7.10
2018-04-23T02:27:37.740Z,7.57
2018-04-23T02:30:06.078Z,8.00
2018-04-23T02:32:34.801Z,7.10
2018-04-23T02:35:02.306Z,7.77
2018-04-23T02:37:29.828Z,7.17
2018-04-23T02:39:58.109Z,8.20
2018-04-23T02:42:25.821Z,8.10
2018-04-23T02:44:53.326Z,8.77
2018-04-23T02:47:21.018Z,9.20
2018-04-23T02:49:48.536Z,8.67
2018-04-23T02:52:16.269Z,8.33
2018-04-23T02:54:43.778Z,7.87
2018-04-23T02:57:11.483Z,7.87
2018-04-23T02:59:39.030Z,8.47
2018-04-23T03:02:06.552Z,8.57
2018-04-23T03:04:35.103Z,9.27
2018-04-23T03:07:02.622Z,8.90
2018-04-23T03:09:30.263Z,8.70
2018-04-23T03:11:57.779Z,9.27
2018-04-23T03:14:25.297Z,9.23
2018-04-23T03:16:52.953Z,10.90
2018-04-23T03:19:20.742Z,10.43
2018-04-23T03:21:48.261Z,8.90
2018-04-23T03:24:16.276Z,9.70
2018-04-23T03:26:43.807Z,9.53
2018-04-23T03:29:11.453Z,9.20
2018-04-23T03:31:39.386Z,9.67
2018-04-23T03:34:07.015Z,11.17
2018-04-23T03:36:34.521Z,10.87
2018-04-23T03:39:02.109Z,11.60
2018-04-23T03:41:29.666Z,12.13
2018-04-23T03:43:57.457Z,11.07
2018-04-23T03:46:24.969Z,11.90
2018-04-23T03:48:52.593Z,10.83
2018-04-23T03:51:20.129Z,12.70
2018-04-23T03:53:47.698Z,13.00
2018-04-23T03:56:15.213Z,11.97
2018-04-23T03:58:42.735Z,13.00
2018-04-23T04:01:10.280Z,13.00
2018-04-23T04:03:37.800Z,12.13
2018-04-23T04:06:05.549Z,14.50
2018-04-23T04:08:33.062Z,14.63
2018-04-23T04:11:00.731Z,14.97
2018-04-23T04:13:48.994Z,14.97
2018-04-23T04:16:28.290Z,13.83
2018-04-23T04:18:55.946Z,14.83
2018-04-23T04:21:23.457Z,15.17
2018-04-23T04:23:51.166Z,16.47
2018-04-23T04:26:18.804Z,16.20
2018-04-23T04:28:46.382Z,16.43
2018-04-23T04:31:13.886Z,16.20
2018-04-23T04:33:43.463Z,17.10
2018-04-23T04:36:11.213Z,16.17
2018-04-23T04:38:38.982Z,15.80
2018-04-23T04:41:06.487Z,16.80
2018-04-23T04:43:34.178Z,18.10
2018-04-23T04:46:01.679Z,17.10
2018-04-23T04:48:29.418Z,19.33
2018-04-23T04:50:56.924Z,17.80
2018-04-23T04:53:24.450Z,16.87
2018-04-23T04:55:52.106Z,16.53
2018-04-23T04:58:19.935Z,18.33
2018-04-23T05:00:47.442Z,17.87
2018-04-23T05:03:15.058Z,17.40
2018-04-23T05:05:42.560Z,21.00
2018-04-23T05:08:10.305Z,17.97
2018-04-23T05:10:38.755Z,18.93
2018-04-23T05:13:06.274Z,19.07
2018-04-23T05:15:34.880Z,19.20
2018-04-23T05:18:02.574Z,20.10
2018-04-23T05:20:30.077Z,19.53
2018-04-23T05:22:57.803Z,18.10
2018-04-23T05:25:25.319Z,21.93
2018-04-23T05:27:53.019Z,19.87
2018-04-23T05:30:20.531Z,20.07
2018-04-23T05:32:48.830Z,20.70
2018-04-23T05:35:16.596Z,19.50
2018-04-23T05:37:44.098Z,21.87
2018-04-23T05:40:11.842Z,21.07
2018-04-23T05:42:39.354Z,21.37
2018-04-23T05:45:07.010Z,20.10
2018-04-23T05:47:34.539Z,19.27
2018-04-23T05:50:02.766Z,20.10
2018-04-23T05:52:30.269Z,20.27
2018-04-23T05:54:58.617Z,18.40
2018-04-23T05:57:26.061Z,20.63
2018-04-23T05:59:53.640Z,13.37
2018-04-23T06:02:21.173Z,19.30
2018-04-23T06:04:49.411Z,18.43
2018-04-23T06:07:16.930Z,19.07
2018-04-23T06:09:44.472Z,19.40
2018-04-23T06:12:12.154Z,19.80
2018-04-23T06:14:39.926Z,20.87
2018-04-23T06:17:07.463Z,21.50
2018-04-23T06:19:35.137Z,19.07
2018-04-23T06:22:02.905Z,20.10
2018-04-23T06:24:30.431Z,21.30
2018-04-23T06:26:57.941Z,20.70
2018-04-23T06:29:25.508Z,22.10
2018-04-23T06:31:53.066Z,23.17
2018-04-23T06:34:20.869Z,22.40
2018-04-23T06:36:48.331Z,23.27
2018-04-23T06:39:16.020Z,23.27
2018-04-23T06:41:43.525Z,21.20
2018-04-23T06:44:12.775Z,23.50
2018-04-23T06:46:40.274Z,23.70
2018-04-23T06:49:08.000Z,22.17
2018-04-23T06:51:35.522Z,23.00
2018-04-23T06:54:03.183Z,22.90
2018-04-23T06:56:30.686Z,22.87
2018-04-23T06:58:58.237Z,25.73
2018-04-23T07:01:25.897Z,26.53
2018-04-23T07:03:53.645Z,23.67
2018-04-23T07:06:21.159Z,24.87
2018-04-23T07:08:48.873Z,24.90
2018-04-23T07:11:16.402Z,26.63
2018-04-23T07:13:43.915Z,24.30
2018-04-23T07:16:11.549Z,26.53
2018-04-23T07:18:39.187Z,26.90
2018-04-23T07:21:06.778Z,27.13
2018-04-23T07:23:34.543Z,29.53
2018-04-23T07:26:02.083Z,30.27
2018-04-23T07:28:29.753Z,29.30
2018-04-23T07:30:57.518Z,30.40
2018-04-23T07:33:25.043Z,29.30
2018-04-23T07:35:52.698Z,33.07
2018-04-23T07:38:20.505Z,31.97
2018-04-23T07:40:48.761Z,30.50
2018-04-23T07:43:16.264Z,30.10
2018-04-23T07:45:43.778Z,28.60
2018-04-23T07:48:11.286Z,30.57
2018-04-23T07:50:39.014Z,34.00
2018-04-23T07:53:06.509Z,32.77
2018-04-23T07:55:34.043Z,32.50
2018-04-23T07:58:01.677Z,32.77
2018-04-23T08:00:29.200Z,35.70
2018-04-23T08:02:56.717Z,34.57
2018-04-23T08:05:24.338Z,35.70
2018-04-23T08:07:52.128Z,34.77
2018-04-23T08:10:19.653Z,36.03
2018-04-23T08:12:47.360Z,32.70
2018-04-23T08:15:14.926Z,33.70
2018-04-23T08:17:42.442Z,39.23
2018-04-23T08:20:09.981Z,37.63
2018-04-23T08:22:37.478Z,38.40
2018-04-23T08:25:04.997Z,35.97
2018-04-23T08:27:32.507Z,36.93
2018-04-23T08:30:00.028Z,34.03
2018-04-23T08:32:27.630Z,34.10
2018-04-23T08:34:55.375Z,33.43
2018-04-23T08:37:22.902Z,34.70
2018-04-23T08:39:50.595Z,36.20
2018-04-23T08:42:18.210Z,36.33
2018-04-23T08:44:45.731Z,34.70
2018-04-23T08:47:13.257Z,37.73
2018-04-23T08:49:40.768Z,38.97
2018-04-23T08:52:08.495Z,40.93
2018-04-23T08:54:35.998Z,40.87
2018-04-23T08:57:03.900Z,38.60
2018-04-23T08:59:31.482Z,40.20
2018-04-23T09:01:59.011Z,40.67
2018-04-23T09:04:26.530Z,45.60
2018-04-23T09:06:54.819Z,44.50
2018-04-23T09:09:22.342Z,43.13
2018-04-23T09:11:49.873Z,45.13
2018-04-23T09:14:17.450Z,42.27
2018-04-23T09:16:44.970Z,41.17
2018-04-23T09:19:12.637Z,43.87
2018-04-23T09:21:40.426Z,39.50
2018-04-23T09:24:08.199Z,43.50
2018-04-23T09:26:36.657Z,45.10
2018-04-23T09:29:04.177Z,44.90
2018-04-23T09:31:32.516Z,42.70
2018-04-23T09:34:00.040Z,44.50
2018-04-23T09:36:27.538Z,46.97
2018-04-23T09:38:55.083Z,43.97
2018-04-23T09:41:22.858Z,47.70
2018-04-23T09:43:50.376Z,43.30
2018-04-23T09:46:18.057Z,44.47
2018-04-23T09:48:45.595Z,39.67
2018-04-23T09:51:13.114Z,38.97
2018-04-23T09:53:40.614Z,40.50
2018-04-23T09:56:08.203Z,36.27
2018-04-23T09:58:36.307Z,34.63
2018-04-23T10:01:09.498Z,38.80
2018-04-23T10:03:42.030Z,37.27
2018-04-23T10:06:09.585Z,36.40
2018-04-23T10:08:37.132Z,34.90
2018-04-23T10:11:04.646Z,36.17
2018-04-23T10:13:32.373Z,37.10
2018-04-23T10:16:00.137Z,37.00
2018-04-23T10:18:27.763Z,38.50
2018-04-23T10:20:56.056Z,39.20
2018-04-23T10:23:23.703Z,39.37
2018-04-23T10:25:51.221Z,41.50
2018-04-23T10:28:18.931Z,34.20
2018-04-23T10:30:46.458Z,33.47
2018-04-23T10:33:13.970Z,35.73
2018-04-23T10:35:41.591Z,32.67
2018-04-23T10:38:09.118Z,31.10
2018-04-23T10:40:36.619Z,28.93
2018-04-23T10:43:04.138Z,30.47
2018-04-23T10:45:32.422Z,29.37
2018-04-23T10:48:00.119Z,25.50
2018-04-23T10:50:27.910Z,22.83
2018-04-23T10:52:55.850Z,16.53
2018-04-23T10:55:23.456Z,17.73
2018-04-23T10:57:51.161Z,17.87
2018-04-23T11:00:18.798Z,16.70
2018-04-23T11:02:47.118Z,13.67
2018-04-23T11:05:14.755Z,15.80
2018-04-23T11:07:42.278Z,15.07
2018-04-23T11:10:10.042Z,14.63
2018-04-23T11:12:37.561Z,15.73
2018-04-23T11:15:05.069Z,12.40
2018-04-23T11:17:33.382Z,13.77
2018-04-23T11:20:00.879Z,11.20
2018-04-23T11:22:28.396Z,7.43
2018-04-23T11:24:56.219Z,8.03
2018-04-23T11:27:23.744Z,5.67
2018-04-23T11:29:51.243Z,5.60
2018-04-23T11:32:18.973Z,5.30
2018-04-23T11:34:46.480Z,4.80
2018-04-23T11:37:14.186Z,5.27
2018-04-23T11:39:41.690Z,4.53
2018-04-23T11:42:09.414Z,3.70
2018-04-23T11:44:36.921Z,4.67
2018-04-23T11:47:04.444Z,4.00
2018-04-23T11:49:31.984Z,3.50
2018-04-23T11:51:59.495Z,2.60
2018-04-23T11:54:27.010Z,3.03
2018-04-23T11:56:55.064Z,2.53
2018-04-23T11:59:22.844Z,3.80
2018-04-23T12:01:50.360Z,3.33
2018-04-23T12:04:17.865Z,3.23
2018-04-23T12:06:45.392Z,3.30
2018-04-23T12:09:12.970Z,2.80
2018-04-23T12:11:40.501Z,3.30
2018-04-23T12:14:08.179Z,3.23
2018-04-23T12:16:35.679Z,3.37
2018-04-23T12:19:03.272Z,2.83
2018-04-23T12:21:30.858Z,3.00
2018-04-23T12:23:58.375Z,3.20
2018-04-23T12:26:25.874Z,3.07
2018-04-23T12:28:53.513Z,3.20
2018-04-23T12:31:21.044Z,3.57
2018-04-23T12:33:48.549Z,3.50
2018-04-23T12:36:16.180Z,3.97
2018-04-23T12:38:43.691Z,4.10
2018-04-23T12:41:11.234Z,3.70
2018-04-23T12:43:39.001Z,4.80
2018-04-23T12:46:06.613Z,3.90
2018-04-23T12:48:34.081Z,4.33
2018-04-23T12:51:01.655Z,4.80
2018-04-23T12:53:29.134Z,4.17
2018-04-23T12:55:56.671Z,3.60
2018-04-23T12:58:24.239Z,4.13
2018-04-23T13:00:51.752Z,5.27
2018-04-23T13:03:19.337Z,5.27
2018-04-23T13:05:46.826Z,4.10
2018-04-23T13:08:14.373Z,4.57
2018-04-23T13:10:42.137Z,5.67
2018-04-23T13:13:09.894Z,4.87
2018-04-23T13:15:37.675Z,4.13
2018-04-23T13:18:05.187Z,4.83
2018-04-23T13:20:32.701Z,4.00
2018-04-23T13:23:00.306Z,4.27
2018-04-23T13:25:27.876Z,3.87
2018-04-23T13:27:55.374Z,3.90
2018-04-23T13:30:23.035Z,3.60
2018-04-23T13:32:52.758Z,3.50
2018-04-23T13:35:20.267Z,3.23
2018-04-23T13:37:47.851Z,4.03
2018-04-23T13:40:15.355Z,3.80
2018-04-23T13:42:43.609Z,2.60
2018-04-23T13:45:11.114Z,3.30
2018-04-23T13:47:38.621Z,3.60
2018-04-23T13:50:06.137Z,2.80
2018-04-23T13:52:33.759Z,3.90
2018-04-23T13:55:01.254Z,3.57
2018-04-23T13:57:29.027Z,4.40
2018-04-23T13:59:56.801Z,4.60
2018-04-23T14:02:24.306Z,3.77
2018-04-23T14:04:51.831Z,4.73
2018-04-23T14:07:19.342Z,4.30
2018-04-23T14:09:46.952Z,5.97
2018-04-23T14:12:14.460Z,5.43
2018-04-23T14:14:41.996Z,5.50
2018-04-23T14:17:10.280Z,7.37
2018-04-23T14:19:37.794Z,7.37
2018-04-23T14:22:05.450Z,7.20
2018-04-23T14:24:33.006Z,7.20
2018-04-23T14:27:00.510Z,6.87
2018-04-23T14:29:28.040Z,7.33
2018-04-23T14:31:55.548Z,7.10
2018-04-23T14:34:23.069Z,6.60
2018-04-23T14:36:50.790Z,5.93
2018-04-23T14:39:18.562Z,6.57
2018-04-23T14:41:46.070Z,6.13
2018-04-23T14:44:13.754Z,7.73
2018-04-23T14:46:41.551Z,6.17
2018-04-23T14:49:09.076Z,7.40
2018-04-23T14:51:36.585Z,6.50
2018-04-23T14:54:04.218Z,6.20
2018-04-23T14:56:31.986Z,7.00
2018-04-23T14:58:59.745Z,6.10
2018-04-23T15:01:27.457Z,6.33
2018-04-23T15:03:54.978Z,7.20
2018-04-23T15:06:22.481Z,6.30
2018-04-23T15:08:50.221Z,6.60
2018-04-23T15:11:17.736Z,6.90
2018-04-23T15:13:45.405Z,7.47
2018-04-23T15:16:12.914Z,6.33
2018-04-23T15:18:40.601Z,5.90
2018-04-23T15:21:08.110Z,6.57
2018-04-23T15:23:35.832Z,6.17
2018-04-23T15:26:03.624Z,6.50
2018-04-23T15:28:31.147Z,6.10
2018-04-23T15:30:58.803Z,4.90
2018-04-23T15:33:26.360Z,5.47
2018-04-23T15:35:54.189Z,6.30
2018-04-23T15:38:22.468Z,6.50
2018-04-23T15:40:50.745Z,4.90
2018-04-23T15:43:18.269Z,5.23
2018-04-23T15:45:47.285Z,5.93
2018-04-23T15:48:14.798Z,6.10
2018-04-23T15:50:42.307Z,6.73
2018-04-23T15:55:45.370Z,7.17
2018-04-23T15:58:12.874Z,6.87
2018-04-23T16:00:40.464Z,7.00
2018-04-23T16:03:08.151Z,6.03
2018-04-23T16:05:35.790Z,7.00
2018-04-23T16:08:03.295Z,5.80
2018-04-23T16:10:32.570Z,6.00
2018-04-23T16:13:00.079Z,5.83
2018-04-23T16:15:27.590Z,6.00
2018-04-23T16:17:55.102Z,6.00
2018-04-23T16:20:22.710Z,5.60
2018-04-23T16:22:50.471Z,5.60
2018-04-23T16:25:18.229Z,4.83
2018-04-23T16:27:45.733Z,5.87
2018-04-23T16:30:13.458Z,5.23
2018-04-23T16:32:40.970Z,5.60
2018-04-23T16:35:08.504Z,4.50
2018-04-23T16:37:36.127Z,5.00
2018-04-23T16:40:03.872Z,5.40
2018-04-23T16:42:31.362Z,4.70
2018-04-23T16:44:59.159Z,4.17
2018-04-23T16:47:26.617Z,4.10
2018-04-23T16:49:54.136Z,4.20
2018-04-23T16:52:21.650Z,4.67
2018-04-23T16:54:49.905Z,4.47
2018-04-23T16:57:19.111Z,4.40
2018-04-23T16:59:46.691Z,4.13
2018-04-23T17:02:14.918Z,4.37
2018-04-23T17:04:42.450Z,3.60
2018-04-23T17:07:09.956Z,3.10
2018-04-23T17:09:37.777Z,2.77
2018-04-23T17:12:05.297Z,3.40
2018-04-23T17:14:32.810Z,3.77
2018-04-23T17:17:01.087Z,3.67
2018-04-23T17:19:28.598Z,2.87
2018-04-23T17:21:56.198Z,3.40
2018-04-23T17:24:23.714Z,3.17
2018-04-23T17:26:51.269Z,3.10
2018-04-23T17:29:19.795Z,3.43
2018-04-23T17:31:48.332Z,3.27
2018-04-23T17:34:16.495Z,3.10
2018-04-23T17:36:44.009Z,3.20
2018-04-23T17:39:11.526Z,3.67
2018-04-23T17:41:39.071Z,2.80
2018-04-23T17:44:08.038Z,3.47
2018-04-23T17:46:36.321Z,4.10
2018-04-23T17:49:03.862Z,3.37
2018-04-23T17:51:31.495Z,3.67
2018-04-23T17:53:59.881Z,3.77
2018-04-23T17:56:27.427Z,3.10
2018-04-23T17:58:54.933Z,2.83
2018-04-23T18:01:23.223Z,3.07
2018-04-23T18:03:50.754Z,4.50
2018-04-23T18:06:19.452Z,3.37
2018-04-23T18:08:48.607Z,3.77
2018-04-23T18:11:16.168Z,3.20
2018-04-23T18:13:43.678Z,4.00
2018-04-23T18:16:12.018Z,3.27
2018-04-23T18:18:39.654Z,4.07
2018-04-23T18:21:07.185Z,3.47
2018-04-23T18:23:34.698Z,2.93
2018-04-23T18:26:02.366Z,3.43
2018-04-23T18:28:29.968Z,2.80
2018-04-23T18:30:57.480Z,2.23
2018-04-23T18:33:26.150Z,3.63
2018-04-23T18:35:53.712Z,2.53
2018-04-23T18:38:21.926Z,3.57
2018-04-23T18:40:50.227Z,3.00
2018-04-23T18:43:17.885Z,3.40
2018-04-23T18:45:45.405Z,2.93
2018-04-23T18:48:13.337Z,2.87
2018-04-23T18:50:40.872Z,2.50
2018-04-23T18:53:08.396Z,2.43
2018-04-23T18:55:36.777Z,3.40
2018-04-23T18:58:04.234Z,1.90
2018-04-23T19:00:33.004Z,2.20
2018-04-23T19:03:01.289Z,2.13
2018-04-23T19:05:29.070Z,8.10
2018-04-23T19:07:56.598Z,5.50
2018-04-23T19:10:24.106Z,10.30
2018-04-23T19:12:51.641Z,3.33
2018-04-23T19:15:19.154Z,4.93
2018-04-23T19:17:46.750Z,2.07
2018-04-23T19:20:14.439Z,2.63
2018-04-23T19:22:42.263Z,2.57
2018-04-23T19:25:09.917Z,2.50
2018-04-23T19:27:37.426Z,2.50
2018-04-23T19:30:05.119Z,2.13
2018-04-23T19:32:32.646Z,2.37
2018-04-23T19:35:00.150Z,2.20
2018-04-23T19:37:27.768Z,3.40
2018-04-23T19:39:55.827Z,7.47
2018-04-23T19:42:23.840Z,4.03
2018-04-23T19:44:51.370Z,3.97
2018-04-23T19:47:20.062Z,3.87
2018-04-23T19:49:47.566Z,3.20
2018-04-23T19:52:15.160Z,5.03
2018-04-23T19:54:42.681Z,5.03
2018-04-23T19:57:10.185Z,3.37
2018-04-23T19:59:37.977Z,4.23
2018-04-23T20:02:05.627Z,3.23
2018-04-23T20:04:33.187Z,5.43
2018-04-23T20:07:00.714Z,3.23
2018-04-23T20:09:28.226Z,3.50
2018-04-23T20:11:56.100Z,3.90
2018-04-23T20:14:24.549Z,4.13
2018-04-23T20:16:52.081Z,3.27
2018-04-23T20:19:19.769Z,5.00
2018-04-23T20:21:47.642Z,3.90
2018-04-23T20:24:15.175Z,6.40
2018-04-23T20:26:42.658Z,2.90
2018-04-23T20:29:11.071Z,5.43
2018-04-23T20:31:38.595Z,4.20
2018-04-23T20:34:06.106Z,3.30
2018-04-23T20:36:33.804Z,2.70
2018-04-23T20:39:01.315Z,3.63
2018-04-23T20:41:28.998Z,3.90
2018-04-23T20:43:56.850Z,3.13
2018-04-23T20:46:24.732Z,12.33
2018-04-23T20:48:52.225Z,6.80
2018-04-23T20:51:19.755Z,7.27
2018-04-23T20:53:47.529Z,3.90
2018-04-23T20:56:15.102Z,3.90
2018-04-23T20:58:42.602Z,4.50
2018-04-23T21:01:10.392Z,4.27
2018-04-23T21:03:37.950Z,4.20
2018-04-23T21:06:05.447Z,3.50
2018-04-23T21:08:32.974Z,4.30
2018-04-23T21:11:00.547Z,4.47
2018-04-23T21:13:28.815Z,5.13
2018-04-23T21:15:56.463Z,6.00
2018-04-23T21:18:23.987Z,4.87
2018-04-23T21:20:51.502Z,4.50
2018-04-23T21:23:20.137Z,6.13
2018-04-23T21:25:48.465Z,5.47
2018-04-23T21:28:15.974Z,5.40
2018-04-23T21:30:43.637Z,6.10
2018-04-23T21:33:11.352Z,5.47
2018-04-23T21:35:38.856Z,5.00
2018-04-23T21:38:06.577Z,120.13
2018-04-23T21:40:34.125Z,8.00
2018-04-23T21:43:01.674Z,5.03
2018-04-23T21:45:29.295Z,4.13
2018-04-23T21:47:56.817Z,4.97
2018-04-23T21:50:25.667Z,4.87
2018-04-23T21:52:53.228Z,4.47
2018-04-23T21:55:20.726Z,4.57
2018-04-23T21:57:48.342Z,3.97
2018-04-23T22:00:15.903Z,4.37
2018-04-23T22:02:43.453Z,4.70
2018-04-23T22:05:10.929Z,4.20
2018-04-23T22:07:38.606Z,4.43
2018-04-23T22:10:06.342Z,5.10
2018-04-23T22:12:33.846Z,3.93
2018-04-23T22:15:01.378Z,4.77
2018-04-23T22:17:29.886Z,4.30
2018-04-23T22:19:57.406Z,4.90
2018-04-23T22:22:25.188Z,5.20
2018-04-23T22:24:52.691Z,5.80
2018-04-23T22:27:20.384Z,5.60
2018-04-23T22:29:48.169Z,5.57
2018-04-23T22:32:15.689Z,6.60
2018-04-23T22:34:43.576Z,5.30
2018-04-23T22:37:11.095Z,5.60
2018-04-23T22:39:38.585Z,8.23
2018-04-23T22:42:06.108Z,7.13
2018-04-23T22:44:33.829Z,6.53
2018-04-23T22:47:01.353Z,8.27
2018-04-23T22:49:29.019Z,6.43
2018-04-23T22:51:56.813Z,8.00
2018-04-23T22:54:24.582Z,6.67
2018-04-23T22:56:52.343Z,7.53
2018-04-23T22:59:19.866Z,7.47
2018-04-23T23:01:47.534Z,8.73
2018-04-23T23:04:15.051Z,7.70
2018-04-23T23:06:42.558Z,8.43
2018-04-23T23:09:10.128Z,7.20
2018-04-23T23:11:37.644Z,8.10
2018-04-23T23:14:05.704Z,8.63
2018-04-23T23:16:33.208Z,8.80
2018-04-23T23:19:00.717Z,7.77
2018-04-23T23:21:28.990Z,7.13
2018-04-23T23:23:56.499Z,7.53
2018-04-23T23:26:24.269Z,7.27
2018-04-23T23:28:52.034Z,9.30
2018-04-23T23:31:19.554Z,6.63
2018-04-23T23:33:47.253Z,7.53
2018-04-23T23:36:14.766Z,6.47
2018-04-23T23:38:42.472Z,8.10
2018-04-23T23:41:10.238Z,9.30
2018-04-23T23:43:37.762Z,8.00
2018-04-23T23:46:05.464Z,8.20
2018-04-23T23:48:32.976Z,7.13
2018-04-23T23:51:00.662Z,7.40
2018-04-23T23:53:28.167Z,7.03
2018-04-23T23:55:56.725Z,7.60
2018-04-23T23:58:24.246Z,7.80
